sensor_id;sensor_type;location;lat;lon;timestamp;P1;durP1;ratioP1;P2;durP2;ratioP2
30543;SDS011;43388;46.308;4.600;2023-02-16T00:01:40;9.65;;;6.82;;
30543;SDS011;43388;46.308;4.600;2023-02-16T00:04:39;7.75;;;6.95;;
30543;SDS011;43388;46.308;4.600;2023-02-16T00:06:58;7.75;;;6.28;;
30543;SDS011;43388;46.308;4.600;2023-02-16T00:09:24;6.65;;;5.95;;
30543;SDS011;43388;46.308;4.600;2023-02-16T00:11:51;8.07;;;6.22;;
30543;SDS011;43388;46.308;4.600;2023-02-16T00:14:37;6.90;;;5.68;;
30543;SDS011;43388;46.308;4.600;2023-02-16T00:17:03;7.68;;;6.10;;
30543;SDS011;43388;46.308;4.600;2023-02-16T00:19:33;6.78;;;6.07;;
30543;SDS011;43388;46.308;4.600;2023-02-16T00:22:00;7.20;;;6.32;;
30543;SDS011;43388;46.308;4.600;2023-02-16T00:24:27;7.18;;;6.35;;
30543;SDS011;43388;46.308;4.600;2023-02-16T00:26:53;7.20;;;6.50;;
30543;SDS011;43388;46.308;4.600;2023-02-16T00:29:21;7.90;;;6.15;;
30543;SDS011;43388;46.308;4.600;2023-02-16T00:31:49;6.70;;;5.93;;
30543;SDS011;43388;46.308;4.600;2023-02-16T00:36:47;6.63;;;6.00;;
30543;SDS011;43388;46.308;4.600;2023-02-16T00:39:13;6.82;;;5.68;;
30543;SDS011;43388;46.308;4.600;2023-02-16T00:41:39;6.22;;;5.60;;
30543;SDS011;43388;46.308;4.600;2023-02-16T00:46:40;6.60;;;5.82;;
30543;SDS011;43388;46.308;4.600;2023-02-16T00:49:19;6.20;;;5.30;;
30543;SDS011;43388;46.308;4.600;2023-02-16T00:51:48;7.57;;;5.97;;
30543;SDS011;43388;46.308;4.600;2023-02-16T00:54:15;6.63;;;5.78;;
30543;SDS011;43388;46.308;4.600;2023-02-16T00:56:41;6.97;;;6.30;;
30543;SDS011;43388;46.308;4.600;2023-02-16T00:59:08;6.40;;;5.65;;
30543;SDS011;43388;46.308;4.600;2023-02-16T01:01:37;6.45;;;5.50;;
30543;SDS011;43388;46.308;4.600;2023-02-16T01:04:03;7.07;;;5.72;;
30543;SDS011;43388;46.308;4.600;2023-02-16T01:06:30;7.45;;;5.97;;
30543;SDS011;43388;46.308;4.600;2023-02-16T01:09:16;9.27;;;6.20;;
30543;SDS011;43388;46.308;4.600;2023-02-16T01:12:02;6.63;;;5.85;;
30543;SDS011;43388;46.308;4.600;2023-02-16T01:14:29;7.32;;;5.70;;
30543;SDS011;43388;46.308;4.600;2023-02-16T01:16:56;7.68;;;6.15;;
30543;SDS011;43388;46.308;4.600;2023-02-16T01:19:22;6.43;;;5.82;;
30543;SDS011;43388;46.308;4.600;2023-02-16T01:21:48;8.75;;;5.80;;
30543;SDS011;43388;46.308;4.600;2023-02-16T01:24:14;6.55;;;5.95;;
30543;SDS011;43388;46.308;4.600;2023-02-16T01:26:41;8.10;;;5.18;;
30543;SDS011;43388;46.308;4.600;2023-02-16T01:29:19;6.00;;;5.50;;
30543;SDS011;43388;46.308;4.600;2023-02-16T01:31:46;5.25;;;4.75;;
30543;SDS011;43388;46.308;4.600;2023-02-16T01:34:12;9.13;;;4.85;;
30543;SDS011;43388;46.308;4.600;2023-02-16T01:36:39;5.22;;;4.75;;
30543;SDS011;43388;46.308;4.600;2023-02-16T01:39:06;7.63;;;5.95;;
30543;SDS011;43388;46.308;4.600;2023-02-16T01:44:27;7.47;;;5.82;;
30543;SDS011;43388;46.308;4.600;2023-02-16T01:46:59;8.80;;;6.32;;
30543;SDS011;43388;46.308;4.600;2023-02-16T01:49:27;8.98;;;6.18;;
30543;SDS011;43388;46.308;4.600;2023-02-16T01:54:42;6.07;;;5.47;;
30543;SDS011;43388;46.308;4.600;2023-02-16T02:02:01;5.45;;;4.95;;
30543;SDS011;43388;46.308;4.600;2023-02-16T02:07:21;6.45;;;4.82;;
30543;SDS011;43388;46.308;4.600;2023-02-16T02:09:51;5.97;;;4.90;;
30543;SDS011;43388;46.308;4.600;2023-02-16T02:12:42;5.68;;;5.10;;
30543;SDS011;43388;46.308;4.600;2023-02-16T02:15:10;5.65;;;5.18;;
30543;SDS011;43388;46.308;4.600;2023-02-16T02:17:37;5.65;;;4.85;;
30543;SDS011;43388;46.308;4.600;2023-02-16T02:20:12;7.13;;;4.53;;
30543;SDS011;43388;46.308;4.600;2023-02-16T02:28:51;4.53;;;4.10;;
30543;SDS011;43388;46.308;4.600;2023-02-16T02:32:01;8.07;;;4.82;;
30543;SDS011;43388;46.308;4.600;2023-02-16T02:34:12;4.90;;;4.32;;
30543;SDS011;43388;46.308;4.600;2023-02-16T02:41:50;5.05;;;4.60;;
30543;SDS011;43388;46.308;4.600;2023-02-16T02:44:32;7.10;;;4.65;;
30543;SDS011;43388;46.308;4.600;2023-02-16T02:46:59;4.45;;;4.05;;
30543;SDS011;43388;46.308;4.600;2023-02-16T02:49:25;5.15;;;4.45;;
30543;SDS011;43388;46.308;4.600;2023-02-16T02:51:51;5.18;;;4.68;;
30543;SDS011;43388;46.308;4.600;2023-02-16T02:57:33;5.53;;;4.13;;
30543;SDS011;43388;46.308;4.600;2023-02-16T03:03:05;6.57;;;4.40;;
30543;SDS011;43388;46.308;4.600;2023-02-16T03:05:32;4.82;;;4.43;;
30543;SDS011;43388;46.308;4.600;2023-02-16T03:08:01;4.35;;;3.92;;
30543;SDS011;43388;46.308;4.600;2023-02-16T03:10:37;4.53;;;3.90;;
30543;SDS011;43388;46.308;4.600;2023-02-16T03:13:24;4.07;;;3.47;;
30543;SDS011;43388;46.308;4.600;2023-02-16T03:15:52;4.40;;;4.00;;
30543;SDS011;43388;46.308;4.600;2023-02-16T03:18:20;4.75;;;4.28;;
30543;SDS011;43388;46.308;4.600;2023-02-16T03:21:07;5.55;;;4.00;;
30543;SDS011;43388;46.308;4.600;2023-02-16T03:23:52;4.50;;;4.10;;
30543;SDS011;43388;46.308;4.600;2023-02-16T03:26:37;4.68;;;4.03;;
30543;SDS011;43388;46.308;4.600;2023-02-16T03:29:22;6.18;;;3.95;;
30543;SDS011;43388;46.308;4.600;2023-02-16T03:31:50;4.20;;;3.80;;
30543;SDS011;43388;46.308;4.600;2023-02-16T03:34:17;7.85;;;3.53;;
30543;SDS011;43388;46.308;4.600;2023-02-16T03:36:45;3.85;;;3.55;;
30543;SDS011;43388;46.308;4.600;2023-02-16T03:39:11;4.75;;;4.35;;
30543;SDS011;43388;46.308;4.600;2023-02-16T03:41:48;4.53;;;4.13;;
30543;SDS011;43388;46.308;4.600;2023-02-16T03:44:14;4.03;;;3.72;;
30543;SDS011;43388;46.308;4.600;2023-02-16T03:46:40;4.97;;;3.50;;
30543;SDS011;43388;46.308;4.600;2023-02-16T03:49:07;4.63;;;4.10;;
30543;SDS011;43388;46.308;4.600;2023-02-16T03:51:33;5.75;;;3.67;;
30543;SDS011;43388;46.308;4.600;2023-02-16T03:53:59;7.03;;;4.07;;
30543;SDS011;43388;46.308;4.600;2023-02-16T03:56:25;4.25;;;3.72;;
30543;SDS011;43388;46.308;4.600;2023-02-16T03:58:51;3.80;;;3.47;;
30543;SDS011;43388;46.308;4.600;2023-02-16T04:01:17;5.82;;;4.68;;
30543;SDS011;43388;46.308;4.600;2023-02-16T04:03:44;4.40;;;4.10;;
30543;SDS011;43388;46.308;4.600;2023-02-16T04:06:10;4.53;;;3.92;;
30543;SDS011;43388;46.308;4.600;2023-02-16T04:08:36;4.35;;;4.03;;
30543;SDS011;43388;46.308;4.600;2023-02-16T04:11:02;4.70;;;4.20;;
30543;SDS011;43388;46.308;4.600;2023-02-16T04:13:48;4.38;;;3.80;;
30543;SDS011;43388;46.308;4.600;2023-02-16T04:16:14;4.72;;;4.43;;
30543;SDS011;43388;46.308;4.600;2023-02-16T04:18:40;5.13;;;4.03;;
30543;SDS011;43388;46.308;4.600;2023-02-16T04:21:06;6.10;;;4.95;;
30543;SDS011;43388;46.308;4.600;2023-02-16T04:23:32;4.20;;;3.50;;
30543;SDS011;43388;46.308;4.600;2023-02-16T04:25:58;3.97;;;3.67;;
30543;SDS011;43388;46.308;4.600;2023-02-16T04:28:24;4.75;;;4.35;;
30543;SDS011;43388;46.308;4.600;2023-02-16T04:30:50;4.03;;;3.72;;
30543;SDS011;43388;46.308;4.600;2023-02-16T04:33:16;5.32;;;3.80;;
30543;SDS011;43388;46.308;4.600;2023-02-16T04:35:42;5.15;;;3.72;;
30543;SDS011;43388;46.308;4.600;2023-02-16T04:38:08;4.30;;;3.90;;
30543;SDS011;43388;46.308;4.600;2023-02-16T04:40:34;4.95;;;4.43;;
30543;SDS011;43388;46.308;4.600;2023-02-16T04:43:00;5.85;;;4.53;;
30543;SDS011;43388;46.308;4.600;2023-02-16T04:45:26;9.20;;;3.72;;
30543;SDS011;43388;46.308;4.600;2023-02-16T04:47:52;5.57;;;4.32;;
30543;SDS011;43388;46.308;4.600;2023-02-16T04:50:18;4.47;;;4.00;;
30543;SDS011;43388;46.308;4.600;2023-02-16T04:52:44;5.20;;;4.40;;
30543;SDS011;43388;46.308;4.600;2023-02-16T04:55:10;5.00;;;3.92;;
30543;SDS011;43388;46.308;4.600;2023-02-16T04:57:37;4.53;;;4.13;;
30543;SDS011;43388;46.308;4.600;2023-02-16T05:00:05;6.45;;;3.95;;
30543;SDS011;43388;46.308;4.600;2023-02-16T05:02:31;3.97;;;3.55;;
30543;SDS011;43388;46.308;4.600;2023-02-16T05:04:57;4.57;;;4.15;;
30543;SDS011;43388;46.308;4.600;2023-02-16T05:07:23;5.07;;;3.58;;
30543;SDS011;43388;46.308;4.600;2023-02-16T05:09:49;5.18;;;3.90;;
30543;SDS011;43388;46.308;4.600;2023-02-16T05:12:16;6.65;;;4.30;;
30543;SDS011;43388;46.308;4.600;2023-02-16T05:15:00;5.97;;;4.13;;
30543;SDS011;43388;46.308;4.600;2023-02-16T05:17:26;4.25;;;3.85;;
30543;SDS011;43388;46.308;4.600;2023-02-16T05:19:54;4.47;;;3.83;;
30543;SDS011;43388;46.308;4.600;2023-02-16T05:22:20;6.43;;;3.88;;
30543;SDS011;43388;46.308;4.600;2023-02-16T05:24:47;4.63;;;4.18;;
30543;SDS011;43388;46.308;4.600;2023-02-16T05:27:15;4.88;;;4.15;;
30543;SDS011;43388;46.308;4.600;2023-02-16T05:29:41;4.47;;;4.07;;
30543;SDS011;43388;46.308;4.600;2023-02-16T05:32:07;4.68;;;4.22;;
30543;SDS011;43388;46.308;4.600;2023-02-16T05:34:33;6.03;;;4.95;;
30543;SDS011;43388;46.308;4.600;2023-02-16T05:36:59;7.32;;;4.95;;
30543;SDS011;43388;46.308;4.600;2023-02-16T05:39:25;4.38;;;3.97;;
30543;SDS011;43388;46.308;4.600;2023-02-16T05:41:51;4.05;;;3.75;;
30543;SDS011;43388;46.308;4.600;2023-02-16T05:44:17;4.43;;;4.13;;
30543;SDS011;43388;46.308;4.600;2023-02-16T05:46:43;4.93;;;4.10;;
30543;SDS011;43388;46.308;4.600;2023-02-16T05:49:11;4.75;;;4.00;;
30543;SDS011;43388;46.308;4.600;2023-02-16T05:51:37;4.43;;;3.67;;
30543;SDS011;43388;46.308;4.600;2023-02-16T05:54:03;6.03;;;3.50;;
30543;SDS011;43388;46.308;4.600;2023-02-16T05:56:29;3.80;;;3.50;;
30543;SDS011;43388;46.308;4.600;2023-02-16T05:58:57;4.68;;;4.22;;
30543;SDS011;43388;46.308;4.600;2023-02-16T06:01:23;5.55;;;4.60;;
30543;SDS011;43388;46.308;4.600;2023-02-16T06:03:49;4.40;;;4.03;;
30543;SDS011;43388;46.308;4.600;2023-02-16T06:06:16;5.25;;;4.50;;
30543;SDS011;43388;46.308;4.600;2023-02-16T06:08:42;6.10;;;4.50;;
30543;SDS011;43388;46.308;4.600;2023-02-16T06:11:08;4.25;;;3.88;;
30543;SDS011;43388;46.308;4.600;2023-02-16T06:13:53;7.43;;;4.37;;
30543;SDS011;43388;46.308;4.600;2023-02-16T06:16:26;3.80;;;3.50;;
30543;SDS011;43388;46.308;4.600;2023-02-16T06:18:53;5.82;;;4.40;;
30543;SDS011;43388;46.308;4.600;2023-02-16T06:21:19;4.63;;;4.32;;
30543;SDS011;43388;46.308;4.600;2023-02-16T06:23:46;4.57;;;4.10;;
30543;SDS011;43388;46.308;4.600;2023-02-16T06:26:12;6.28;;;4.63;;
30543;SDS011;43388;46.308;4.600;2023-02-16T06:28:38;4.95;;;4.50;;
30543;SDS011;43388;46.308;4.600;2023-02-16T06:31:04;6.18;;;3.90;;
30543;SDS011;43388;46.308;4.600;2023-02-16T06:33:30;5.07;;;4.25;;
30543;SDS011;43388;46.308;4.600;2023-02-16T06:35:56;6.65;;;4.28;;
30543;SDS011;43388;46.308;4.600;2023-02-16T06:38:22;4.30;;;3.85;;
30543;SDS011;43388;46.308;4.600;2023-02-16T06:40:50;6.28;;;4.53;;
30543;SDS011;43388;46.308;4.600;2023-02-16T06:43:16;6.32;;;5.72;;
30543;SDS011;43388;46.308;4.600;2023-02-16T06:45:42;11.43;;;5.35;;
30543;SDS011;43388;46.308;4.600;2023-02-16T06:48:08;10.10;;;5.63;;
30543;SDS011;43388;46.308;4.600;2023-02-16T06:50:34;6.80;;;4.93;;
30543;SDS011;43388;46.308;4.600;2023-02-16T06:53:00;5.43;;;4.55;;
30543;SDS011;43388;46.308;4.600;2023-02-16T06:55:26;6.05;;;4.70;;
30543;SDS011;43388;46.308;4.600;2023-02-16T06:57:55;5.43;;;4.95;;
30543;SDS011;43388;46.308;4.600;2023-02-16T07:00:21;5.30;;;4.68;;
30543;SDS011;43388;46.308;4.600;2023-02-16T07:02:46;5.00;;;4.60;;
30543;SDS011;43388;46.308;4.600;2023-02-16T07:05:12;6.07;;;4.20;;
30543;SDS011;43388;46.308;4.600;2023-02-16T07:07:39;5.68;;;4.60;;
30543;SDS011;43388;46.308;4.600;2023-02-16T07:10:05;6.85;;;4.63;;
30543;SDS011;43388;46.308;4.600;2023-02-16T07:12:31;5.43;;;4.65;;
30543;SDS011;43388;46.308;4.600;2023-02-16T07:14:57;5.05;;;4.63;;
30543;SDS011;43388;46.308;4.600;2023-02-16T07:17:24;9.68;;;4.97;;
30543;SDS011;43388;46.308;4.600;2023-02-16T07:19:50;8.63;;;4.90;;
30543;SDS011;43388;46.308;4.600;2023-02-16T07:22:16;9.43;;;5.20;;
30543;SDS011;43388;46.308;4.600;2023-02-16T07:24:42;4.78;;;4.10;;
30543;SDS011;43388;46.308;4.600;2023-02-16T07:27:08;8.45;;;4.35;;
30543;SDS011;43388;46.308;4.600;2023-02-16T07:29:34;5.50;;;4.53;;
30543;SDS011;43388;46.308;4.600;2023-02-16T07:32:01;5.30;;;4.80;;
30543;SDS011;43388;46.308;4.600;2023-02-16T07:34:27;4.78;;;4.10;;
30543;SDS011;43388;46.308;4.600;2023-02-16T07:36:53;6.75;;;4.40;;
30543;SDS011;43388;46.308;4.600;2023-02-16T07:39:19;4.40;;;4.00;;
30543;SDS011;43388;46.308;4.600;2023-02-16T07:41:45;6.47;;;4.18;;
30543;SDS011;43388;46.308;4.600;2023-02-16T07:44:11;6.00;;;4.15;;
30543;SDS011;43388;46.308;4.600;2023-02-16T07:46:37;6.75;;;5.13;;
30543;SDS011;43388;46.308;4.600;2023-02-16T07:49:03;5.45;;;4.40;;
30543;SDS011;43388;46.308;4.600;2023-02-16T07:51:29;7.68;;;5.15;;
30543;SDS011;43388;46.308;4.600;2023-02-16T07:53:56;6.22;;;4.55;;
30543;SDS011;43388;46.308;4.600;2023-02-16T07:56:24;8.07;;;5.05;;
30543;SDS011;43388;46.308;4.600;2023-02-16T07:58:51;5.18;;;4.68;;
30543;SDS011;43388;46.308;4.600;2023-02-16T08:01:17;5.90;;;4.50;;
30543;SDS011;43388;46.308;4.600;2023-02-16T08:03:43;7.03;;;4.95;;
30543;SDS011;43388;46.308;4.600;2023-02-16T08:06:09;5.97;;;4.43;;
30543;SDS011;43388;46.308;4.600;2023-02-16T08:08:36;6.47;;;5.63;;
30543;SDS011;43388;46.308;4.600;2023-02-16T08:11:08;6.60;;;5.28;;
30543;SDS011;43388;46.308;4.600;2023-02-16T08:13:35;4.78;;;4.32;;
30543;SDS011;43388;46.308;4.600;2023-02-16T08:16:01;12.07;;;5.45;;
30543;SDS011;43388;46.308;4.600;2023-02-16T08:18:28;11.23;;;4.45;;
30543;SDS011;43388;46.308;4.600;2023-02-16T08:20:54;5.35;;;4.40;;
30543;SDS011;43388;46.308;4.600;2023-02-16T08:23:21;9.63;;;4.70;;
30543;SDS011;43388;46.308;4.600;2023-02-16T08:25:47;5.43;;;4.45;;
30543;SDS011;43388;46.308;4.600;2023-02-16T08:28:13;5.57;;;4.78;;
30543;SDS011;43388;46.308;4.600;2023-02-16T08:30:39;7.80;;;5.00;;
30543;SDS011;43388;46.308;4.600;2023-02-16T08:33:05;10.98;;;5.03;;
30543;SDS011;43388;46.308;4.600;2023-02-16T08:35:31;5.65;;;5.15;;
30543;SDS011;43388;46.308;4.600;2023-02-16T08:37:58;8.75;;;5.15;;
30543;SDS011;43388;46.308;4.600;2023-02-16T08:40:24;5.88;;;5.28;;
30543;SDS011;43388;46.308;4.600;2023-02-16T08:42:50;7.90;;;4.93;;
30543;SDS011;43388;46.308;4.600;2023-02-16T08:45:16;6.18;;;4.85;;
30543;SDS011;43388;46.308;4.600;2023-02-16T08:47:43;6.55;;;4.78;;
30543;SDS011;43388;46.308;4.600;2023-02-16T08:50:09;7.70;;;5.38;;
30543;SDS011;43388;46.308;4.600;2023-02-16T08:52:36;14.60;;;7.75;;
30543;SDS011;43388;46.308;4.600;2023-02-16T08:55:02;15.02;;;6.45;;
30543;SDS011;43388;46.308;4.600;2023-02-16T08:57:32;60.92;;;42.15;;
30543;SDS011;43388;46.308;4.600;2023-02-16T08:59:58;47.97;;;33.60;;
30543;SDS011;43388;46.308;4.600;2023-02-16T09:02:42;89.60;;;61.83;;
30543;SDS011;43388;46.308;4.600;2023-02-16T09:05:08;61.35;;;40.80;;
30543;SDS011;43388;46.308;4.600;2023-02-16T09:07:34;69.22;;;48.25;;
30543;SDS011;43388;46.308;4.600;2023-02-16T09:10:01;50.40;;;32.83;;
30543;SDS011;43388;46.308;4.600;2023-02-16T09:12:28;36.78;;;26.02;;
30543;SDS011;43388;46.308;4.600;2023-02-16T09:14:55;28.33;;;21.08;;
30543;SDS011;43388;46.308;4.600;2023-02-16T09:17:21;20.98;;;15.05;;
30543;SDS011;43388;46.308;4.600;2023-02-16T09:19:47;14.48;;;7.75;;
30543;SDS011;43388;46.308;4.600;2023-02-16T09:22:13;12.68;;;7.80;;
30543;SDS011;43388;46.308;4.600;2023-02-16T09:24:39;8.10;;;5.10;;
30543;SDS011;43388;46.308;4.600;2023-02-16T09:27:05;6.25;;;5.65;;
30543;SDS011;43388;46.308;4.600;2023-02-16T09:29:31;5.40;;;4.88;;
30543;SDS011;43388;46.308;4.600;2023-02-16T09:31:58;9.45;;;5.03;;
30543;SDS011;43388;46.308;4.600;2023-02-16T09:34:24;6.03;;;4.57;;
30543;SDS011;43388;46.308;4.600;2023-02-16T09:36:51;8.63;;;5.63;;
30543;SDS011;43388;46.308;4.600;2023-02-16T09:39:17;11.40;;;5.40;;
30543;SDS011;43388;46.308;4.600;2023-02-16T09:46:44;14.02;;;7.47;;
30543;SDS011;43388;46.308;4.600;2023-02-16T09:52:11;17.02;;;11.35;;
30543;SDS011;43388;46.308;4.600;2023-02-16T09:54:46;8.23;;;7.15;;
30543;SDS011;43388;46.308;4.600;2023-02-16T09:57:20;7.43;;;5.43;;
30543;SDS011;43388;46.308;4.600;2023-02-16T09:59:52;6.20;;;5.57;;
30543;SDS011;43388;46.308;4.600;2023-02-16T10:02:24;13.82;;;5.22;;
30543;SDS011;43388;46.308;4.600;2023-02-16T10:10:06;7.40;;;4.13;;
30543;SDS011;43388;46.308;4.600;2023-02-16T10:12:36;8.93;;;4.05;;
30543;SDS011;43388;46.308;4.600;2023-02-16T10:15:06;6.70;;;4.05;;
30543;SDS011;43388;46.308;4.600;2023-02-16T10:25:07;4.85;;;4.13;;
30543;SDS011;43388;46.308;4.600;2023-02-16T10:27:36;3.70;;;3.33;;
30543;SDS011;43388;46.308;4.600;2023-02-16T10:30:13;4.28;;;3.97;;
30543;SDS011;43388;46.308;4.600;2023-02-16T10:32:53;4.07;;;3.67;;
30543;SDS011;43388;46.308;4.600;2023-02-16T10:35:44;4.65;;;4.05;;
30543;SDS011;43388;46.308;4.600;2023-02-16T10:45:56;4.18;;;3.78;;
30543;SDS011;43388;46.308;4.600;2023-02-16T10:48:25;6.95;;;4.95;;
30543;SDS011;43388;46.308;4.600;2023-02-16T10:58:48;4.72;;;4.18;;
30543;SDS011;43388;46.308;4.600;2023-02-16T11:01:17;5.25;;;4.80;;
30543;SDS011;43388;46.308;4.600;2023-02-16T11:03:44;6.65;;;4.80;;
30543;SDS011;43388;46.308;4.600;2023-02-16T11:06:11;4.32;;;3.92;;
30543;SDS011;43388;46.308;4.600;2023-02-16T11:09:20;5.07;;;4.22;;
30543;SDS011;43388;46.308;4.600;2023-02-16T11:11:35;5.70;;;4.50;;
30543;SDS011;43388;46.308;4.600;2023-02-16T11:14:03;4.43;;;4.05;;
30543;SDS011;43388;46.308;4.600;2023-02-16T11:16:29;5.00;;;4.35;;
30543;SDS011;43388;46.308;4.600;2023-02-16T11:19:02;5.95;;;4.25;;
30543;SDS011;43388;46.308;4.600;2023-02-16T11:24:36;6.13;;;5.53;;
30543;SDS011;43388;46.308;4.600;2023-02-16T11:32:04;5.45;;;4.30;;
30543;SDS011;43388;46.308;4.600;2023-02-16T11:34:32;6.05;;;4.55;;
30543;SDS011;43388;46.308;4.600;2023-02-16T11:37:00;4.18;;;3.78;;
30543;SDS011;43388;46.308;4.600;2023-02-16T11:39:28;4.93;;;4.53;;
30543;SDS011;43388;46.308;4.600;2023-02-16T11:41:59;4.68;;;4.25;;
30543;SDS011;43388;46.308;4.600;2023-02-16T11:44:26;7.57;;;3.88;;
30543;SDS011;43388;46.308;4.600;2023-02-16T11:46:54;6.45;;;4.38;;
30543;SDS011;43388;46.308;4.600;2023-02-16T11:51:56;4.82;;;4.38;;
30543;SDS011;43388;46.308;4.600;2023-02-16T11:54:23;10.43;;;7.97;;
30543;SDS011;43388;46.308;4.600;2023-02-16T11:57:05;4.47;;;4.10;;
30543;SDS011;43388;46.308;4.600;2023-02-16T11:59:34;6.57;;;4.22;;
30543;SDS011;43388;46.308;4.600;2023-02-16T12:02:13;5.60;;;4.20;;
30543;SDS011;43388;46.308;4.600;2023-02-16T12:07:25;4.85;;;4.45;;
30543;SDS011;43388;46.308;4.600;2023-02-16T12:10:03;8.30;;;5.82;;
30543;SDS011;43388;46.308;4.600;2023-02-16T12:26:07;5.47;;;4.03;;
30543;SDS011;43388;46.308;4.600;2023-02-16T12:47:02;5.13;;;4.53;;
30543;SDS011;43388;46.308;4.600;2023-02-16T12:52:36;8.90;;;8.10;;
30543;SDS011;43388;46.308;4.600;2023-02-16T12:57:42;5.03;;;4.47;;
30543;SDS011;43388;46.308;4.600;2023-02-16T13:00:20;3.97;;;3.67;;
30543;SDS011;43388;46.308;4.600;2023-02-16T13:02:51;4.25;;;3.83;;
30543;SDS011;43388;46.308;4.600;2023-02-16T13:05:25;4.68;;;3.33;;
30543;SDS011;43388;46.308;4.600;2023-02-16T13:07:59;3.95;;;3.13;;
30543;SDS011;43388;46.308;4.600;2023-02-16T13:17:48;3.00;;;2.33;;
30543;SDS011;43388;46.308;4.600;2023-02-16T13:20:16;3.33;;;3.03;;
30543;SDS011;43388;46.308;4.600;2023-02-16T13:22:46;3.65;;;2.88;;
30543;SDS011;43388;46.308;4.600;2023-02-16T13:38:25;2.95;;;2.70;;
30543;SDS011;43388;46.308;4.600;2023-02-16T13:45:51;3.45;;;2.45;;
30543;SDS011;43388;46.308;4.600;2023-02-16T13:48:29;4.30;;;2.88;;
30543;SDS011;43388;46.308;4.600;2023-02-16T13:51:00;3.10;;;2.50;;
30543;SDS011;43388;46.308;4.600;2023-02-16T13:53:29;3.38;;;3.00;;
30543;SDS011;43388;46.308;4.600;2023-02-16T13:58:41;3.05;;;2.75;;
30543;SDS011;43388;46.308;4.600;2023-02-16T14:03:52;2.65;;;2.45;;
30543;SDS011;43388;46.308;4.600;2023-02-16T14:14:26;3.38;;;2.40;;
30543;SDS011;43388;46.308;4.600;2023-02-16T14:16:52;2.63;;;2.33;;
30543;SDS011;43388;46.308;4.600;2023-02-16T14:19:21;3.67;;;2.35;;
30543;SDS011;43388;46.308;4.600;2023-02-16T14:21:48;3.97;;;2.75;;
30543;SDS011;43388;46.308;4.600;2023-02-16T14:26:56;5.18;;;2.30;;
30543;SDS011;43388;46.308;4.600;2023-02-16T14:29:26;4.07;;;2.33;;
30543;SDS011;43388;46.308;4.600;2023-02-16T14:31:57;2.35;;;2.13;;
30543;SDS011;43388;46.308;4.600;2023-02-16T14:34:26;2.33;;;2.00;;
30543;SDS011;43388;46.308;4.600;2023-02-16T14:42:07;3.20;;;2.20;;
30543;SDS011;43388;46.308;4.600;2023-02-16T14:44:39;2.10;;;1.83;;
30543;SDS011;43388;46.308;4.600;2023-02-16T14:47:19;2.75;;;1.90;;
30543;SDS011;43388;46.308;4.600;2023-02-16T14:59:54;1.92;;;1.73;;
30543;SDS011;43388;46.308;4.600;2023-02-16T15:02:32;3.50;;;1.80;;
30543;SDS011;43388;46.308;4.600;2023-02-16T15:05:18;2.53;;;1.63;;
30543;SDS011;43388;46.308;4.600;2023-02-16T15:07:49;2.67;;;2.00;;
30543;SDS011;43388;46.308;4.600;2023-02-16T15:10:25;3.35;;;2.30;;
30543;SDS011;43388;46.308;4.600;2023-02-16T15:12:53;2.88;;;2.05;;
30543;SDS011;43388;46.308;4.600;2023-02-16T15:15:20;2.20;;;2.00;;
30543;SDS011;43388;46.308;4.600;2023-02-16T15:17:49;5.25;;;1.85;;
30543;SDS011;43388;46.308;4.600;2023-02-16T15:20:27;2.40;;;2.20;;
30543;SDS011;43388;46.308;4.600;2023-02-16T15:22:55;2.70;;;2.10;;
30543;SDS011;43388;46.308;4.600;2023-02-16T15:25:29;2.50;;;2.00;;
30543;SDS011;43388;46.308;4.600;2023-02-16T15:27:58;2.80;;;1.70;;
30543;SDS011;43388;46.308;4.600;2023-02-16T15:30:31;2.55;;;2.25;;
30543;SDS011;43388;46.308;4.600;2023-02-16T15:33:02;3.80;;;2.22;;
30543;SDS011;43388;46.308;4.600;2023-02-16T15:35:33;2.55;;;2.13;;
30543;SDS011;43388;46.308;4.600;2023-02-16T15:40:27;3.50;;;2.65;;
30543;SDS011;43388;46.308;4.600;2023-02-16T15:42:56;2.90;;;2.22;;
30543;SDS011;43388;46.308;4.600;2023-02-16T15:45:32;7.32;;;3.13;;
30543;SDS011;43388;46.308;4.600;2023-02-16T15:50:44;3.10;;;2.50;;
30543;SDS011;43388;46.308;4.600;2023-02-16T15:53:11;7.82;;;2.85;;
30543;SDS011;43388;46.308;4.600;2023-02-16T15:55:42;3.92;;;2.78;;
30543;SDS011;43388;46.308;4.600;2023-02-16T15:58:08;3.42;;;3.03;;
30543;SDS011;43388;46.308;4.600;2023-02-16T16:00:36;3.33;;;2.85;;
30543;SDS011;43388;46.308;4.600;2023-02-16T16:03:06;6.30;;;2.70;;
30543;SDS011;43388;46.308;4.600;2023-02-16T16:05:33;7.55;;;3.03;;
30543;SDS011;43388;46.308;4.600;2023-02-16T16:08:00;5.50;;;3.30;;
30543;SDS011;43388;46.308;4.600;2023-02-16T16:10:34;4.28;;;2.70;;
30543;SDS011;43388;46.308;4.600;2023-02-16T16:13:10;5.65;;;2.85;;
30543;SDS011;43388;46.308;4.600;2023-02-16T16:15:41;6.35;;;3.00;;
30543;SDS011;43388;46.308;4.600;2023-02-16T16:21:00;5.18;;;2.80;;
30543;SDS011;43388;46.308;4.600;2023-02-16T16:23:27;3.65;;;2.88;;
30543;SDS011;43388;46.308;4.600;2023-02-16T16:25:53;3.45;;;3.15;;
30543;SDS011;43388;46.308;4.600;2023-02-16T16:36:30;4.38;;;3.83;;
30543;SDS011;43388;46.308;4.600;2023-02-16T16:39:10;7.40;;;4.18;;
30543;SDS011;43388;46.308;4.600;2023-02-16T16:41:39;4.13;;;3.78;;
30543;SDS011;43388;46.308;4.600;2023-02-16T16:44:07;6.75;;;4.57;;
30543;SDS011;43388;46.308;4.600;2023-02-16T16:46:35;8.15;;;5.25;;
30543;SDS011;43388;46.308;4.600;2023-02-16T16:49:01;8.38;;;7.50;;
30543;SDS011;43388;46.308;4.600;2023-02-16T16:51:38;10.07;;;8.75;;
30543;SDS011;43388;46.308;4.600;2023-02-16T16:54:09;10.05;;;8.73;;
30543;SDS011;43388;46.308;4.600;2023-02-16T16:56:39;11.38;;;9.93;;
30543;SDS011;43388;46.308;4.600;2023-02-16T16:59:06;12.88;;;9.73;;
30543;SDS011;43388;46.308;4.600;2023-02-16T17:01:32;18.33;;;10.50;;
30543;SDS011;43388;46.308;4.600;2023-02-16T17:03:58;14.88;;;10.68;;
30543;SDS011;43388;46.308;4.600;2023-02-16T17:06:24;16.10;;;12.48;;
30543;SDS011;43388;46.308;4.600;2023-02-16T17:08:50;18.70;;;14.80;;
30543;SDS011;43388;46.308;4.600;2023-02-16T17:11:22;23.98;;;14.57;;
30543;SDS011;43388;46.308;4.600;2023-02-16T17:13:48;29.52;;;15.60;;
30543;SDS011;43388;46.308;4.600;2023-02-16T17:16:16;24.92;;;15.07;;
30543;SDS011;43388;46.308;4.600;2023-02-16T17:18:45;29.70;;;16.65;;
30543;SDS011;43388;46.308;4.600;2023-02-16T17:21:11;24.67;;;16.58;;
30543;SDS011;43388;46.308;4.600;2023-02-16T17:23:38;25.13;;;15.15;;
30543;SDS011;43388;46.308;4.600;2023-02-16T17:26:04;22.63;;;16.40;;
30543;SDS011;43388;46.308;4.600;2023-02-16T17:28:31;20.58;;;16.50;;
30543;SDS011;43388;46.308;4.600;2023-02-16T17:31:04;25.80;;;18.27;;
30543;SDS011;43388;46.308;4.600;2023-02-16T17:33:30;24.42;;;17.52;;
30543;SDS011;43388;46.308;4.600;2023-02-16T17:35:56;22.70;;;17.70;;
30543;SDS011;43388;46.308;4.600;2023-02-16T17:38:23;22.58;;;16.55;;
30543;SDS011;43388;46.308;4.600;2023-02-16T17:40:50;22.33;;;16.52;;
30543;SDS011;43388;46.308;4.600;2023-02-16T17:43:17;24.25;;;17.63;;
30543;SDS011;43388;46.308;4.600;2023-02-16T17:45:43;25.00;;;18.48;;
30543;SDS011;43388;46.308;4.600;2023-02-16T17:48:14;24.15;;;17.63;;
30543;SDS011;43388;46.308;4.600;2023-02-16T17:50:40;24.58;;;17.60;;
30543;SDS011;43388;46.308;4.600;2023-02-16T17:53:11;24.15;;;17.42;;
30543;SDS011;43388;46.308;4.600;2023-02-16T17:55:36;26.48;;;17.50;;
30543;SDS011;43388;46.308;4.600;2023-02-16T17:58:03;23.40;;;17.10;;
30543;SDS011;43388;46.308;4.600;2023-02-16T18:00:29;28.58;;;16.65;;
30543;SDS011;43388;46.308;4.600;2023-02-16T18:02:55;27.88;;;17.33;;
30543;SDS011;43388;46.308;4.600;2023-02-16T18:05:21;27.67;;;19.27;;
30543;SDS011;43388;46.308;4.600;2023-02-16T18:07:47;21.88;;;16.20;;
30543;SDS011;43388;46.308;4.600;2023-02-16T18:10:18;23.02;;;17.73;;